createdAt,value
2023-02-28T00:01:28.283Z,63.34
2023-02-28T00:03:55.094Z,61.62
2023-02-28T00:06:22.161Z,56.54
2023-02-28T00:08:48.967Z,55.80
2023-02-28T00:11:16.537Z,57.19
2023-02-28T00:13:49.657Z,58.37
2023-02-28T00:16:22.215Z,59.37
2023-02-28T00:18:49.556Z,60.07
2023-02-28T00:21:18.623Z,60.73
2023-02-28T00:23:45.391Z,61.47
2023-02-28T00:26:12.371Z,61.83
2023-02-28T00:28:38.976Z,63.22
2023-02-28T00:31:05.891Z,62.45
2023-02-28T00:33:32.781Z,57.46
2023-02-28T00:36:11.165Z,55.95
2023-02-28T00:38:39.276Z,56.91
2023-02-28T00:41:06.416Z,58.02
2023-02-28T00:43:35.193Z,58.95
2023-02-28T00:46:03.226Z,59.25
2023-02-28T00:48:30.319Z,60.01
2023-02-28T00:50:56.901Z,60.68
2023-02-28T00:53:23.666Z,61.32
2023-02-28T00:55:51.263Z,61.87
2023-02-28T00:58:18.395Z,62.32
2023-02-28T01:00:49.101Z,64.13
2023-02-28T01:03:18.144Z,62.03
2023-02-28T01:05:45.475Z,57.21
2023-02-28T01:08:12.362Z,56.44
2023-02-28T01:10:38.879Z,57.73
2023-02-28T01:13:05.741Z,58.88
2023-02-28T01:15:32.906Z,59.84
2023-02-28T01:17:59.518Z,60.71
2023-02-28T01:20:26.095Z,61.32
2023-02-28T01:22:52.729Z,61.85
2023-02-28T01:25:19.376Z,63.46
2023-02-28T01:27:45.945Z,62.24
2023-02-28T01:30:12.793Z,57.46
2023-02-28T01:32:39.343Z,56.20
2023-02-28T01:35:06.253Z,57.58
2023-02-28T01:37:32.872Z,59.02
2023-02-28T01:39:59.363Z,60.27
2023-02-28T01:42:25.940Z,60.96
2023-02-28T01:45:19.956Z,62.00
2023-02-28T01:47:48.861Z,63.95
2023-02-28T01:50:21.541Z,61.27
2023-02-28T01:52:49.013Z,56.15
2023-02-28T01:55:17.578Z,55.82
2023-02-28T01:57:49.634Z,57.60
2023-02-28T02:00:20.983Z,59.04
2023-02-28T02:02:52.038Z,60.26
2023-02-28T02:05:24.687Z,61.41
2023-02-28T02:07:56.953Z,62.30
2023-02-28T02:10:49.719Z,63.80
2023-02-28T02:13:26.442Z,59.92
2023-02-28T02:16:12.317Z,55.43
2023-02-28T02:18:53.590Z,56.45
2023-02-28T02:21:51.113Z,58.29
2023-02-28T02:25:17.163Z,59.18
2023-02-28T02:28:20.552Z,61.04
2023-02-28T02:31:00.474Z,62.20
2023-02-28T02:33:52.412Z,63.55
2023-02-28T02:36:25.058Z,59.68
2023-02-28T02:38:58.015Z,55.26
2023-02-28T02:41:51.468Z,56.37
2023-02-28T02:44:32.400Z,57.99
2023-02-28T02:47:06.833Z,59.70
2023-02-28T02:49:36.340Z,60.80
2023-02-28T02:52:08.901Z,62.05
2023-02-28T02:54:38.931Z,63.78
2023-02-28T02:57:17.392Z,62.12
2023-02-28T02:59:44.195Z,56.96
2023-02-28T03:02:16.183Z,56.29
2023-02-28T03:05:01.820Z,58.10
2023-02-28T03:07:28.448Z,59.67
2023-02-28T03:09:57.766Z,60.86
2023-02-28T03:12:34.652Z,61.99
2023-02-28T03:15:54.934Z,63.81
2023-02-28T03:18:49.344Z,60.86
2023-02-28T03:21:42.639Z,55.52
2023-02-28T03:24:12.785Z,56.39
2023-02-28T03:26:44.312Z,57.97
2023-02-28T03:29:44.022Z,59.36
2023-02-28T03:32:22.404Z,60.02
2023-02-28T03:35:06.404Z,61.44
2023-02-28T03:37:36.671Z,62.81
2023-02-28T03:40:09.423Z,63.49
2023-02-28T03:42:37.045Z,60.21
2023-02-28T03:45:09.752Z,55.78
2023-02-28T03:47:43.684Z,55.90
2023-02-28T03:50:21.157Z,57.84
2023-02-28T03:53:04.967Z,59.44
2023-02-28T03:55:52.282Z,60.51
2023-02-28T03:58:37.841Z,62.29
2023-02-28T04:01:26.295Z,64.00
2023-02-28T04:03:52.890Z,60.18
2023-02-28T04:06:22.148Z,55.53
2023-02-28T04:08:49.196Z,56.47
2023-02-28T04:11:53.635Z,58.20
2023-02-28T04:14:20.132Z,59.20
2023-02-28T04:16:47.351Z,61.27
2023-02-28T04:19:15.082Z,62.98
2023-02-28T04:21:44.838Z,62.94
2023-02-28T04:24:15.406Z,59.29
2023-02-28T04:26:45.254Z,55.68
2023-02-28T04:29:15.918Z,56.80
2023-02-28T04:31:42.431Z,58.25
2023-02-28T04:34:08.983Z,60.04
2023-02-28T04:36:35.542Z,61.29
2023-02-28T04:39:02.562Z,62.12
2023-02-28T04:41:32.338Z,63.85
2023-02-28T04:43:59.312Z,61.79
2023-02-28T04:46:25.814Z,57.22
2023-02-28T04:48:52.325Z,56.77
2023-02-28T04:51:20.185Z,58.65
2023-02-28T04:53:47.614Z,60.13
2023-02-28T04:56:16.738Z,61.52
2023-02-28T04:58:43.928Z,63.23
2023-02-28T05:01:25.575Z,62.62
2023-02-28T05:03:54.822Z,57.88
2023-02-28T05:06:24.868Z,56.94
2023-02-28T05:08:52.923Z,58.82
2023-02-28T05:11:29.973Z,60.13
2023-02-28T05:13:56.780Z,61.17
2023-02-28T05:16:23.355Z,63.44
2023-02-28T05:18:49.931Z,62.73
2023-02-28T05:21:34.612Z,58.25
2023-02-28T05:24:09.096Z,56.88
2023-02-28T05:26:42.077Z,58.21
2023-02-28T05:29:09.718Z,59.81
2023-02-28T05:31:37.271Z,61.04
2023-02-28T05:34:06.685Z,61.92
2023-02-28T05:36:33.962Z,64.13
2023-02-28T05:39:00.650Z,62.31
2023-02-28T05:41:27.610Z,58.33
2023-02-28T05:43:54.382Z,57.01
2023-02-28T05:46:21.328Z,58.79
2023-02-28T05:48:48.759Z,60.59
2023-02-28T05:51:15.708Z,61.64
2023-02-28T05:53:42.274Z,63.84
2023-02-28T05:56:09.310Z,62.17
2023-02-28T05:58:35.916Z,57.07
2023-02-28T06:01:48.404Z,56.51
2023-02-28T06:04:30.668Z,58.96
2023-02-28T06:06:57.901Z,60.70
2023-02-28T06:09:25.416Z,61.28
2023-02-28T06:11:52.097Z,61.95
2023-02-28T06:14:20.137Z,63.96
2023-02-28T06:16:47.529Z,62.41
2023-02-28T06:19:15.390Z,58.00
2023-02-28T06:21:42.212Z,57.36
2023-02-28T06:24:08.900Z,59.43
2023-02-28T06:26:36.221Z,60.99
2023-02-28T06:29:03.740Z,62.22
2023-02-28T06:31:30.937Z,63.67
2023-02-28T06:33:58.044Z,61.33
2023-02-28T06:36:24.782Z,57.14
2023-02-28T06:38:54.996Z,56.77
2023-02-28T06:41:28.007Z,58.57
2023-02-28T06:43:55.335Z,60.22
2023-02-28T06:46:22.587Z,61.71
2023-02-28T06:48:49.964Z,63.57
2023-02-28T06:51:24.529Z,61.91
2023-02-28T06:53:51.439Z,57.63
2023-02-28T06:56:20.455Z,57.50
2023-02-28T06:58:52.785Z,58.76
2023-02-28T07:01:19.915Z,60.60
2023-02-28T07:03:47.097Z,61.93
2023-02-28T07:06:13.695Z,63.79
2023-02-28T07:08:41.397Z,61.43
2023-02-28T07:11:07.957Z,56.63
2023-02-28T07:13:34.485Z,56.69
2023-02-28T07:16:05.698Z,58.87
2023-02-28T07:18:32.654Z,60.43
2023-02-28T07:21:03.189Z,61.50
2023-02-28T07:23:29.791Z,62.70
2023-02-28T07:25:56.269Z,63.71
2023-02-28T07:28:23.109Z,60.34
2023-02-28T07:30:50.194Z,56.24
2023-02-28T07:33:17.063Z,56.55
2023-02-28T07:35:44.318Z,58.53
2023-02-28T07:38:11.884Z,60.26
2023-02-28T07:40:38.442Z,61.78
2023-02-28T07:43:05.077Z,63.09
2023-02-28T07:45:34.854Z,61.08
2023-02-28T07:48:02.174Z,57.25
2023-02-28T07:50:31.070Z,58.01
2023-02-28T07:52:59.392Z,60.11
2023-02-28T07:55:26.041Z,61.30
2023-02-28T07:57:52.576Z,62.94
2023-02-28T08:00:19.506Z,61.20
2023-02-28T08:02:46.177Z,57.01
2023-02-28T08:05:12.878Z,56.65
2023-02-28T08:07:39.649Z,58.41
2023-02-28T08:10:07.292Z,59.51
2023-02-28T08:12:33.897Z,60.81
2023-02-28T08:15:00.478Z,61.34
2023-02-28T08:17:27.278Z,62.00
2023-02-28T08:19:53.842Z,64.03
2023-02-28T08:22:20.379Z,62.17
2023-02-28T08:24:49.594Z,57.95
2023-02-28T08:27:16.215Z,56.87
2023-02-28T08:29:42.673Z,58.28
2023-02-28T08:32:17.414Z,59.47
2023-02-28T08:34:50.205Z,60.66
2023-02-28T08:37:17.238Z,61.36
2023-02-28T08:39:43.788Z,61.82
2023-02-28T08:42:10.424Z,63.12
2023-02-28T08:44:37.005Z,58.55
2023-02-28T08:47:04.014Z,56.38
2023-02-28T08:49:30.537Z,58.05
2023-02-28T08:51:57.525Z,59.23
2023-02-28T08:54:24.803Z,60.15
2023-02-28T08:56:52.099Z,60.18
2023-02-28T08:59:18.723Z,60.64
2023-02-28T09:01:45.387Z,60.69
2023-02-28T09:04:13.275Z,61.06
2023-02-28T09:06:42.400Z,61.50
2023-02-28T09:09:09.960Z,61.22
2023-02-28T09:11:37.696Z,60.88
2023-02-28T09:14:04.686Z,59.83
2023-02-28T09:16:35.346Z,57.57
2023-02-28T09:19:02.704Z,57.19
2023-02-28T09:21:29.862Z,56.14
2023-02-28T09:23:56.861Z,55.21
2023-02-28T09:26:34.646Z,54.36
2023-02-28T09:29:05.894Z,54.05
2023-02-28T09:31:33.340Z,53.04
2023-02-28T09:34:00.436Z,50.86
2023-02-28T09:36:41.546Z,49.86
2023-02-28T09:39:10.526Z,47.77
2023-02-28T09:41:52.409Z,45.75
2023-02-28T09:44:45.113Z,43.34
2023-02-28T09:47:17.425Z,42.75
2023-02-28T09:49:47.395Z,43.84
2023-02-28T09:52:30.897Z,42.92
2023-02-28T09:55:28.936Z,42.34
2023-02-28T09:57:58.058Z,41.69
2023-02-28T10:00:33.836Z,39.14
2023-02-28T10:03:09.324Z,37.29
2023-02-28T10:05:44.557Z,36.30
2023-02-28T10:08:25.550Z,36.65
2023-02-28T10:10:56.278Z,36.86
2023-02-28T10:13:38.377Z,37.92
2023-02-28T10:16:17.969Z,37.51
2023-02-28T10:18:51.416Z,36.08
2023-02-28T10:21:35.346Z,36.28
2023-02-28T10:24:32.702Z,35.65
2023-02-28T10:27:19.170Z,34.79
2023-02-28T10:29:53.409Z,34.23
2023-02-28T10:32:25.166Z,34.05
2023-02-28T10:35:01.016Z,33.95
2023-02-28T10:37:29.010Z,33.10
2023-02-28T10:39:57.010Z,33.34
2023-02-28T10:42:27.063Z,33.65
2023-02-28T10:45:16.787Z,33.60
2023-02-28T10:47:50.622Z,33.42
2023-02-28T10:50:52.630Z,33.41
2023-02-28T10:53:25.145Z,33.56
2023-02-28T10:56:02.150Z,33.60
2023-02-28T10:59:02.101Z,33.56
2023-02-28T11:01:46.055Z,33.75
2023-02-28T11:04:33.784Z,34.35
2023-02-28T11:07:19.966Z,34.24
2023-02-28T11:09:58.840Z,34.77
2023-02-28T11:12:55.711Z,34.69
2023-02-28T11:15:33.697Z,33.92
2023-02-28T11:18:01.416Z,34.15
2023-02-28T11:20:31.431Z,33.97
2023-02-28T11:22:59.637Z,33.07
2023-02-28T11:25:31.497Z,33.21
2023-02-28T11:28:06.801Z,33.63
2023-02-28T11:30:41.017Z,33.61
2023-02-28T11:33:57.452Z,33.15
2023-02-28T11:36:32.151Z,33.32
2023-02-28T11:39:10.774Z,32.71
2023-02-28T11:42:17.251Z,32.94
2023-02-28T11:45:23.575Z,33.02
2023-02-28T11:48:33.032Z,33.47
2023-02-28T11:51:24.921Z,32.22
2023-02-28T11:54:06.944Z,31.63
2023-02-28T11:56:55.383Z,31.24
2023-02-28T12:00:18.344Z,31.35
2023-02-28T12:03:11.249Z,31.74
2023-02-28T12:05:53.393Z,31.75
2023-02-28T12:08:48.456Z,31.72
2023-02-28T12:11:54.163Z,30.27
2023-02-28T12:14:54.917Z,30.81
2023-02-28T12:17:30.835Z,30.75
2023-02-28T12:20:14.837Z,30.08
2023-02-28T12:23:17.857Z,30.03
2023-02-28T12:26:20.731Z,30.87
2023-02-28T12:28:53.440Z,31.37
2023-02-28T12:31:23.494Z,32.19
2023-02-28T12:34:03.009Z,32.48
2023-02-28T12:36:30.171Z,32.16
2023-02-28T12:39:22.905Z,32.38
2023-02-28T12:42:03.012Z,33.10
2023-02-28T12:44:46.898Z,33.06
2023-02-28T12:47:17.314Z,33.39
2023-02-28T12:50:03.179Z,33.95
2023-02-28T12:52:35.810Z,34.27
2023-02-28T12:55:16.928Z,34.03
2023-02-28T12:58:12.186Z,34.59
2023-02-28T13:01:03.028Z,35.06
2023-02-28T13:04:00.796Z,34.98
2023-02-28T13:06:58.232Z,35.41
2023-02-28T13:09:25.567Z,35.28
2023-02-28T13:11:54.047Z,35.81
2023-02-28T13:14:23.823Z,35.91
2023-02-28T13:16:59.403Z,36.32
2023-02-28T13:19:32.371Z,36.45
2023-02-28T13:22:00.180Z,36.48
2023-02-28T13:24:47.119Z,36.45
2023-02-28T13:27:15.612Z,36.42
2023-02-28T13:29:46.281Z,36.81
2023-02-28T13:32:13.373Z,37.05
2023-02-28T13:35:04.806Z,37.22
2023-02-28T13:37:36.581Z,37.43
2023-02-28T13:40:38.296Z,36.74
2023-02-28T13:43:09.176Z,36.89
2023-02-28T13:45:38.967Z,37.00
2023-02-28T13:48:19.353Z,36.91
2023-02-28T13:50:46.492Z,37.24
2023-02-28T13:53:16.770Z,37.54
2023-02-28T13:55:54.698Z,37.97
2023-02-28T13:58:59.017Z,38.16
2023-02-28T14:01:44.211Z,38.55
2023-02-28T14:04:47.316Z,38.73
2023-02-28T14:07:21.972Z,39.35
2023-02-28T14:10:09.237Z,38.88
2023-02-28T14:13:00.617Z,38.99
2023-02-28T14:16:02.887Z,38.95
2023-02-28T14:18:36.409Z,38.55
2023-02-28T14:21:36.139Z,38.69
2023-02-28T14:24:26.493Z,39.50
2023-02-28T14:27:24.775Z,40.60
2023-02-28T14:29:52.030Z,40.96
2023-02-28T14:32:59.572Z,40.97
2023-02-28T14:35:26.948Z,41.59
2023-02-28T14:37:54.918Z,42.20
2023-02-28T14:40:31.619Z,42.73
2023-02-28T14:43:05.026Z,42.79
2023-02-28T14:45:37.912Z,42.41
2023-02-28T14:48:10.288Z,42.80
2023-02-28T14:50:38.187Z,43.86
2023-02-28T14:53:07.476Z,44.67
2023-02-28T14:55:37.694Z,44.54
2023-02-28T14:58:08.018Z,44.74
2023-02-28T15:00:40.485Z,45.02
2023-02-28T15:03:35.742Z,44.48
2023-02-28T15:06:14.284Z,44.50
2023-02-28T15:08:41.754Z,44.43
2023-02-28T15:11:14.402Z,45.37
2023-02-28T15:13:46.574Z,45.74
2023-02-28T15:16:29.391Z,45.71
2023-02-28T15:19:23.315Z,45.97
2023-02-28T15:21:57.606Z,47.60
2023-02-28T15:24:44.313Z,47.54
2023-02-28T15:27:36.503Z,47.67
2023-02-28T15:30:13.988Z,47.29
2023-02-28T15:32:42.014Z,48.24
2023-02-28T15:35:30.474Z,47.91
2023-02-28T15:38:06.022Z,48.31
2023-02-28T15:40:41.827Z,48.54
2023-02-28T15:43:30.705Z,49.12
2023-02-28T15:46:08.921Z,49.18
2023-02-28T15:49:00.483Z,49.12
2023-02-28T15:51:37.730Z,49.24
2023-02-28T15:54:24.952Z,49.79
2023-02-28T15:56:55.718Z,50.07
2023-02-28T15:59:31.111Z,50.01
2023-02-28T16:02:18.450Z,50.69
2023-02-28T16:05:06.599Z,51.19
2023-02-28T16:07:38.342Z,50.90
2023-02-28T16:10:07.444Z,51.12
2023-02-28T16:12:37.507Z,52.17
2023-02-28T16:15:21.357Z,52.35
2023-02-28T16:17:48.940Z,51.98
2023-02-28T16:20:25.716Z,52.23
2023-02-28T16:22:53.075Z,53.06
2023-02-28T16:25:41.813Z,53.03
2023-02-28T16:28:26.313Z,52.92
2023-02-28T16:30:57.507Z,53.18
2023-02-28T16:33:24.209Z,53.42
2023-02-28T16:35:50.820Z,53.44
2023-02-28T16:38:17.599Z,53.81
2023-02-28T16:40:44.779Z,53.74
2023-02-28T16:43:24.451Z,53.84
2023-02-28T16:46:00.790Z,54.09
2023-02-28T16:48:28.056Z,54.44
2023-02-28T16:50:55.350Z,55.26
2023-02-28T16:53:22.056Z,55.49
2023-02-28T16:55:48.725Z,55.94
2023-02-28T16:58:17.573Z,56.42
2023-02-28T17:00:44.172Z,56.78
2023-02-28T17:03:32.596Z,57.07
2023-02-28T17:06:04.617Z,57.84
2023-02-28T17:08:32.412Z,58.58
2023-02-28T17:11:00.173Z,58.24
2023-02-28T17:13:27.386Z,58.09
2023-02-28T17:15:54.209Z,58.19
2023-02-28T17:18:21.546Z,58.38
2023-02-28T17:20:48.687Z,58.75
2023-02-28T17:23:16.280Z,58.85
2023-02-28T17:25:53.674Z,58.80
2023-02-28T17:28:22.513Z,58.84
2023-02-28T17:30:49.694Z,60.37
2023-02-28T17:33:16.429Z,60.94
2023-02-28T17:35:43.091Z,61.15
2023-02-28T17:38:19.332Z,61.93
2023-02-28T17:40:45.921Z,62.04
2023-02-28T17:43:12.518Z,63.63
2023-02-28T17:45:41.412Z,62.05
2023-02-28T17:48:12.108Z,56.62
2023-02-28T17:50:38.949Z,55.67
2023-02-28T17:53:05.539Z,57.23
2023-02-28T17:55:34.274Z,58.58
2023-02-28T17:58:01.586Z,59.47
2023-02-28T18:00:33.840Z,59.80
2023-02-28T18:03:00.728Z,60.15
2023-02-28T18:05:27.492Z,60.98
2023-02-28T18:07:54.182Z,61.81
2023-02-28T18:10:21.769Z,63.24
2023-02-28T18:12:50.737Z,61.79
2023-02-28T18:15:22.699Z,56.61
2023-02-28T18:17:50.016Z,55.48
2023-02-28T18:20:48.612Z,57.34
2023-02-28T18:23:17.841Z,58.33
2023-02-28T18:25:44.518Z,58.81
2023-02-28T18:28:11.120Z,59.41
2023-02-28T18:30:37.808Z,60.29
2023-02-28T18:33:04.751Z,60.83
2023-02-28T18:35:34.841Z,61.08
2023-02-28T18:38:05.465Z,61.42
2023-02-28T18:40:32.429Z,61.80
2023-02-28T18:42:59.245Z,62.31
2023-02-28T18:45:26.412Z,64.10
2023-02-28T18:47:53.032Z,61.82
2023-02-28T18:50:19.689Z,56.37
2023-02-28T18:52:46.633Z,55.48
2023-02-28T18:55:18.139Z,57.24
2023-02-28T18:57:46.719Z,59.00
2023-02-28T19:00:19.231Z,60.65
2023-02-28T19:02:45.864Z,61.23
2023-02-28T19:05:12.631Z,61.65
2023-02-28T19:07:40.346Z,62.25
2023-02-28T19:10:08.789Z,63.90
2023-02-28T19:12:41.749Z,61.79
2023-02-28T19:15:10.007Z,56.65
2023-02-28T19:17:37.033Z,56.17
2023-02-28T19:20:09.065Z,58.02
2023-02-28T19:22:36.503Z,59.43
2023-02-28T19:25:05.659Z,60.63
2023-02-28T19:27:32.332Z,61.58
2023-02-28T19:29:59.044Z,62.17
2023-02-28T19:32:26.583Z,63.67
2023-02-28T19:34:53.321Z,61.50
2023-02-28T19:37:19.959Z,56.03
2023-02-28T19:39:46.568Z,55.66
2023-02-28T19:42:16.711Z,57.60
2023-02-28T19:44:44.539Z,59.02
2023-02-28T19:47:12.417Z,60.21
2023-02-28T19:49:40.429Z,61.19
2023-02-28T19:52:09.105Z,62.11
2023-02-28T19:54:37.186Z,63.83
2023-02-28T19:57:03.933Z,61.29
2023-02-28T19:59:39.277Z,56.14
2023-02-28T20:02:16.883Z,56.18
2023-02-28T20:04:48.112Z,58.19
2023-02-28T20:07:21.494Z,59.82
2023-02-28T20:09:48.434Z,61.06
2023-02-28T20:12:24.195Z,61.94
2023-02-28T20:14:52.803Z,63.85
2023-02-28T20:17:19.422Z,61.33
2023-02-28T20:19:46.150Z,56.12
2023-02-28T20:22:12.979Z,56.14
2023-02-28T20:24:39.700Z,58.33
2023-02-28T20:27:06.611Z,60.42
2023-02-28T20:29:34.636Z,62.01
2023-02-28T20:32:01.765Z,63.93
2023-02-28T20:34:28.603Z,61.10
2023-02-28T20:36:56.224Z,56.19
2023-02-28T20:39:23.346Z,56.42
2023-02-28T20:41:50.209Z,58.61
2023-02-28T20:44:54.867Z,60.54
2023-02-28T20:47:21.562Z,61.78
2023-02-28T20:49:48.093Z,63.58
2023-02-28T20:52:14.715Z,61.59
2023-02-28T20:54:41.292Z,56.64
2023-02-28T20:57:07.967Z,56.38
2023-02-28T20:59:34.746Z,58.13
2023-02-28T21:02:01.363Z,59.91
2023-02-28T21:04:28.019Z,61.12
2023-02-28T21:06:54.642Z,62.08
2023-02-28T21:09:21.311Z,63.91
2023-02-28T21:11:48.944Z,61.70
2023-02-28T21:14:17.465Z,56.59
2023-02-28T21:16:44.293Z,56.21
2023-02-28T21:19:11.426Z,58.14
2023-02-28T21:21:44.722Z,59.91
2023-02-28T21:24:14.537Z,61.29
2023-02-28T21:26:43.948Z,62.28
2023-02-28T21:29:12.098Z,63.96
2023-02-28T21:31:39.359Z,61.18
2023-02-28T21:34:08.232Z,56.17
2023-02-28T21:36:44.921Z,56.19
2023-02-28T21:39:18.028Z,58.39
2023-02-28T21:41:45.286Z,60.18
2023-02-28T21:44:22.256Z,61.80
2023-02-28T21:46:56.299Z,63.82
2023-02-28T21:49:23.607Z,61.04
2023-02-28T21:51:50.206Z,55.88
2023-02-28T21:54:17.029Z,56.07
2023-02-28T21:56:44.124Z,58.08
2023-02-28T21:59:11.173Z,59.77
2023-02-28T22:01:43.664Z,60.99
2023-02-28T22:04:20.677Z,62.27
2023-02-28T22:06:58.772Z,63.89
2023-02-28T22:09:33.289Z,60.29
2023-02-28T22:12:00.133Z,55.64
2023-02-28T22:14:27.030Z,56.86
2023-02-28T22:16:56.277Z,59.10
2023-02-28T22:19:23.686Z,60.79
2023-02-28T22:21:53.162Z,62.07
2023-02-28T22:24:23.637Z,63.93
2023-02-28T22:26:52.044Z,61.37
2023-02-28T22:29:18.951Z,56.30
2023-02-28T22:31:45.813Z,55.97
2023-02-28T22:34:12.743Z,58.03
2023-02-28T22:36:42.510Z,59.99
2023-02-28T22:39:10.213Z,61.61
2023-02-28T22:41:37.412Z,62.81
2023-02-28T22:44:06.836Z,62.76
2023-02-28T22:46:34.846Z,58.05
2023-02-28T22:49:03.920Z,56.51
2023-02-28T22:51:31.050Z,58.51
2023-02-28T22:53:57.847Z,60.49
2023-02-28T22:56:27.362Z,62.17
2023-02-28T22:58:56.514Z,63.79
2023-02-28T23:01:25.836Z,60.91
2023-02-28T23:03:53.399Z,55.80
2023-02-28T23:06:29.849Z,56.44
2023-02-28T23:09:01.024Z,58.96
2023-02-28T23:11:38.851Z,61.51
2023-02-28T23:14:06.514Z,63.53
2023-02-28T23:16:36.392Z,61.59
2023-02-28T23:19:07.724Z,56.43
2023-02-28T23:21:35.243Z,56.59
2023-02-28T23:24:04.933Z,58.70
2023-02-28T23:26:32.479Z,60.53
2023-02-28T23:29:00.192Z,61.98
2023-02-28T23:31:26.783Z,63.70
2023-02-28T23:33:55.860Z,60.86
2023-02-28T23:36:23.249Z,55.82
2023-02-28T23:38:51.658Z,56.50
2023-02-28T23:41:20.745Z,58.74
2023-02-28T23:43:48.308Z,60.69
2023-02-28T23:46:16.263Z,62.07
2023-02-28T23:48:43.183Z,63.85
2023-02-28T23:51:17.851Z,61.45
2023-02-28T23:53:47.659Z,56.45
2023-02-28T23:56:18.773Z,56.97
2023-02-28T23:58:46.155Z,59.25
